Airfield :
LOGIN :

Register | Disclaimer

   EN    FR    IT 

 










Legend :    VFR   Marginal VFR   IFR   Intensive IFR   Very Intensive IFR
Visi :
Ceiling :
>= 8 km
>= 3000ft
5 to 8 km
1000 to 3000 ft
1500m to 5 km
500 to 1000 ft
800 to 1500m
200 to 500 ft
< 800m
< 200 ft
Symbols :   Thunderstorms  Fog  Heavy snow  Heavy precipitations  Wind > 20 kt
SIGMETs :     Misc.  Thunderstorms  Icing  Turbulence  Mountain Waves  Volcanic Ashes






- Airport Elevation : 1115 ft
- IATA code : GRZ


LOWG - Graz

CURRENT METAR :
  • 280650Z 19003KT 160V240 4000 BR OVC004 M02/M03 Q1021 R17/15//95 BECMG 5000

EXPIRED METARs :
  • 280620Z VRB02KT 2400 BR OVC003 M02/M03 Q1021 R17/15//95 BECMG 3500
  • 280550Z VRB02KT 2700 1300N R17/P1500N R35/P1500U BR OVC002 M02/M03 Q1021 TEMPO 1300
  • 280520Z AUTO 16002KT 1700 R17/P1500D R35/P1500N BR BKN001 M02/M03 Q1021
  • 280450Z AUTO 13003KT 1700 R17/P1500U R35/P1500U BR BKN001 M02/M03 Q1021
  • 280420Z AUTO 14002KT 1300 R17/1300U R35/P1500N BR FEW001 BKN002 M02/M03 Q1021

TAF AMD TAF LOWG
Valid from the 28 at 06:00 until the 29 at 06:00 UTC


280551Z 2806/2906 VRB04KT 3000 BKN003 TXM01/2813Z TNM02/2806Z
PROB40
TEMPO 2806/2808 0600 FZFG VV002
TEMPO 2808/2816 6000 BKN005
TEMPO 2903/2906 0300 FZFG VV002



MET'MAP, your aeronautical weather chart ! - Copyright ORBIFLY December 2007 - Disclaimer

ORBIFLY MET'MAP TEAM :

Programming & Development : Alexandra Zaïnal
Concept & original design : Baudouin d'Aumeries
Assistance for programming : Marc-Olivier Méhu
Technical & hardware support : Manuel Goepfert

Contact : metmap@orbifly.com




SOURCES & CREDITS :

   NOAA